Time;durP1;ratioP1;P1;durP2;ratioP2;P2;SDS_P1;SDS_P2;PMS_P1;PMS_P2;Temp;Humidity;BMP_temperature;BMP_pressure;BME280_temperature;BME280_humidity;BME280_pressure;Samples;Min_cycle;Max_cycle;Signal;HPM_P1;HPM_P2
2023/04/06 00:01:10;;;;;;;6.10;2.10;;;2.60;99.90;;;;;;5033636;28;21919;-82
2023/04/06 00:03:37;;;;;;;4.88;2.00;;;2.60;99.90;;;;;;5018092;28;20051;-81
2023/04/06 00:06:02;;;;;;;3.75;2.25;;;2.50;99.90;;;;;;5018735;28;20044;-81
2023/04/06 00:08:28;;;;;;;3.17;1.80;;;2.50;99.90;;;;;;5012762;28;20395;-81
2023/04/06 00:10:54;;;;;;;3.60;1.80;;;2.50;99.90;;;;;;5030504;28;20029;-81
2023/04/06 00:13:19;;;;;;;4.63;2.08;;;2.50;99.90;;;;;;5034200;28;20033;-81
2023/04/06 00:15:45;;;;;;;4.28;2.38;;;2.40;99.90;;;;;;5015178;28;20049;-81
2023/04/06 00:18:11;;;;;;;6.55;2.15;;;2.40;99.90;;;;;;5017416;28;20069;-81
2023/04/06 00:20:36;;;;;;;3.65;1.85;;;2.40;99.90;;;;;;5017662;28;20091;-81
2023/04/06 00:23:02;;;;;;;2.33;1.42;;;2.40;99.90;;;;;;5028037;28;20037;-81
2023/04/06 00:25:28;;;;;;;4.45;1.70;;;2.30;99.90;;;;;;5035214;28;20287;-81
2023/04/06 00:27:53;;;;;;;4.85;2.03;;;2.30;99.90;;;;;;5033043;28;20037;-81
2023/04/06 00:30:19;;;;;;;4.18;1.80;;;2.30;99.90;;;;;;5032116;28;20073;-81
2023/04/06 00:32:44;;;;;;;3.53;2.25;;;2.20;99.90;;;;;;5018713;28;20033;-81
2023/04/06 00:35:10;;;;;;;3.20;1.77;;;2.30;99.90;;;;;;5011858;28;20573;-81
2023/04/06 00:37:36;;;;;;;4.70;2.05;;;2.20;99.90;;;;;;5013072;28;20030;-81
2023/04/06 00:40:02;;;;;;;5.28;2.53;;;2.20;99.90;;;;;;5016699;28;20182;-81
2023/04/06 00:42:28;;;;;;;4.38;2.42;;;2.30;99.90;;;;;;5014149;28;20064;-81
2023/04/06 00:44:55;;;;;;;4.00;1.95;;;2.20;99.90;;;;;;5021172;28;20082;-81
2023/04/06 00:47:21;;;;;;;3.28;1.90;;;2.20;99.90;;;;;;5016122;28;20597;-81
2023/04/06 00:49:47;;;;;;;8.13;1.98;;;2.20;99.90;;;;;;5036397;28;20037;-81
2023/04/06 00:52:13;;;;;;;4.45;2.30;;;2.10;99.90;;;;;;5036716;28;20033;-81
2023/04/06 00:54:39;;;;;;;3.50;1.95;;;2.10;99.90;;;;;;5017512;28;20398;-81
2023/04/06 00:57:05;;;;;;;5.68;2.38;;;2.10;99.90;;;;;;5024802;28;20033;-81
2023/04/06 00:59:31;;;;;;;3.00;2.00;;;2.10;99.90;;;;;;5039837;28;20489;-81
2023/04/06 01:01:57;;;;;;;4.20;1.90;;;2.00;99.90;;;;;;5016839;28;20513;-81
2023/04/06 01:04:22;;;;;;;3.95;1.92;;;2.00;99.90;;;;;;5037466;28;20029;-81
2023/04/06 01:06:49;;;;;;;4.15;2.00;;;2.00;99.90;;;;;;5018467;28;20041;-81
2023/04/06 01:09:15;;;;;;;4.10;1.90;;;2.00;99.90;;;;;;5012395;28;20562;-81
2023/04/06 01:11:41;;;;;;;4.50;2.08;;;2.00;99.90;;;;;;5015534;28;20088;-81
2023/04/06 01:14:07;;;;;;;3.33;2.03;;;2.00;99.90;;;;;;5022587;28;20045;-81
2023/04/06 01:16:33;;;;;;;4.30;2.33;;;1.90;99.90;;;;;;5020340;28;20045;-81
2023/04/06 01:18:58;;;;;;;3.17;1.95;;;1.90;99.90;;;;;;5034235;28;21260;-81
2023/04/06 01:21:25;;;;;;;3.55;2.03;;;1.90;99.90;;;;;;5036059;28;20053;-81
2023/04/06 01:23:50;;;;;;;5.88;1.90;;;1.90;99.90;;;;;;5021022;28;20632;-81
2023/04/06 01:26:16;;;;;;;2.83;1.90;;;1.80;99.90;;;;;;5035126;28;20095;-81
2023/04/06 01:28:42;;;;;;;2.80;1.67;;;1.80;99.90;;;;;;5017892;28;20037;-81
2023/04/06 01:31:09;;;;;;;5.20;2.00;;;1.90;99.90;;;;;;5014780;28;20486;-81
2023/04/06 01:33:35;;;;;;;5.03;2.60;;;1.90;99.90;;;;;;5036449;28;20119;-81
2023/04/06 01:36:01;;;;;;;3.50;1.90;;;1.90;99.90;;;;;;5012263;28;20053;-81
2023/04/06 01:38:27;;;;;;;3.80;2.20;;;1.80;99.90;;;;;;5038354;28;20045;-81
2023/04/06 01:40:53;;;;;;;4.35;2.40;;;1.80;99.90;;;;;;5021905;28;20532;-81
2023/04/06 01:43:19;;;;;;;4.20;1.88;;;1.80;99.90;;;;;;5021421;28;20041;-81
2023/04/06 01:45:45;;;;;;;4.85;2.10;;;1.80;99.90;;;;;;5035097;28;20406;-81
2023/04/06 01:48:10;;;;;;;4.80;2.00;;;1.80;99.90;;;;;;5035506;28;20123;-81
2023/04/06 01:50:36;;;;;;;3.60;2.20;;;1.80;99.90;;;;;;5037183;28;20041;-81
2023/04/06 01:53:01;;;;;;;3.85;1.98;;;1.80;99.90;;;;;;5013299;28;20386;-81
2023/04/06 01:55:27;;;;;;;3.67;2.03;;;1.70;99.90;;;;;;5014389;28;20140;-81
2023/04/06 01:57:52;;;;;;;4.10;2.22;;;1.70;99.90;;;;;;5036377;28;20048;-81
2023/04/06 02:00:18;;;;;;;3.95;2.00;;;1.70;99.90;;;;;;5022349;28;20443;-81
2023/04/06 02:02:44;;;;;;;3.88;1.98;;;1.70;99.90;;;;;;5038951;28;20035;-81
2023/04/06 02:05:09;;;;;;;4.57;2.28;;;1.70;99.90;;;;;;5014048;28;20437;-81
2023/04/06 02:07:35;;;;;;;3.28;1.95;;;1.70;99.90;;;;;;5015136;28;20045;-81
2023/04/06 02:10:02;;;;;;;8.23;1.98;;;1.70;99.90;;;;;;5036752;28;20033;-80
2023/04/06 02:12:27;;;;;;;3.00;1.80;;;1.70;99.90;;;;;;5021745;28;20041;-81
2023/04/06 02:14:53;;;;;;;3.00;1.92;;;1.60;99.90;;;;;;5036656;28;20044;-81
2023/04/06 02:17:18;;;;;;;6.30;2.13;;;1.60;99.90;;;;;;5018957;28;20041;-81
2023/04/06 02:19:44;;;;;;;3.35;2.00;;;1.60;99.90;;;;;;5034951;28;20037;-81
2023/04/06 02:22:10;;;;;;;5.65;2.63;;;1.60;99.90;;;;;;5035194;28;20114;-81
2023/04/06 02:24:36;;;;;;;4.07;2.05;;;1.60;99.90;;;;;;5016325;28;20393;-81
2023/04/06 02:27:01;;;;;;;4.90;2.20;;;1.70;99.90;;;;;;5013622;28;20036;-81
2023/04/06 02:29:27;;;;;;;3.88;2.22;;;1.60;99.90;;;;;;5036712;28;20143;-81
2023/04/06 02:31:52;;;;;;;2.85;1.83;;;1.60;99.90;;;;;;5017323;28;20041;-81
2023/04/06 02:34:18;;;;;;;5.45;2.15;;;1.60;99.90;;;;;;5033603;28;20025;-81
2023/04/06 02:36:46;;;;;;;3.45;1.92;;;1.60;99.90;;;;;;5014665;28;20069;-81
2023/04/06 02:39:11;;;;;;;5.63;2.47;;;1.60;99.90;;;;;;5017813;28;20482;-81
2023/04/06 02:41:37;;;;;;;4.43;1.98;;;1.60;99.90;;;;;;5018093;28;20041;-81
2023/04/06 02:44:03;;;;;;;5.57;2.58;;;1.60;99.90;;;;;;5016462;28;20070;-81
2023/04/06 02:46:29;;;;;;;4.78;2.45;;;1.60;99.90;;;;;;5029901;28;20037;-81
2023/04/06 02:48:55;;;;;;;3.25;1.88;;;1.60;99.90;;;;;;5014342;28;20789;-81
2023/04/06 02:51:20;;;;;;;3.80;1.98;;;1.60;99.90;;;;;;5032684;28;20506;-81
2023/04/06 02:53:46;;;;;;;4.45;1.90;;;1.60;99.90;;;;;;5034777;28;20185;-81
2023/04/06 02:56:12;;;;;;;5.60;2.60;;;1.60;99.90;;;;;;5031360;28;20069;-81
2023/04/06 02:58:37;;;;;;;4.75;2.38;;;1.60;99.90;;;;;;5019097;28;20126;-81
2023/04/06 03:01:03;;;;;;;3.78;2.10;;;1.60;99.90;;;;;;5036285;28;20040;-81
2023/04/06 03:03:29;;;;;;;5.28;2.10;;;1.60;99.90;;;;;;5017522;28;20040;-81
2023/04/06 03:05:58;;;;;;;4.65;2.17;;;1.50;99.90;;;;;;5029020;28;20049;-81
2023/04/06 03:08:24;;;;;;;2.60;1.67;;;1.60;99.90;;;;;;5035699;28;20136;-80
2023/04/06 03:10:49;;;;;;;3.92;2.30;;;1.50;99.90;;;;;;5016543;28;20149;-81
2023/04/06 03:13:15;;;;;;;5.10;1.88;;;1.50;99.90;;;;;;5033316;28;20041;-81
2023/04/06 03:15:41;;;;;;;10.40;2.60;;;1.50;99.90;;;;;;5033195;28;20445;-81
2023/04/06 03:18:06;;;;;;;5.70;2.72;;;1.60;99.90;;;;;;5019215;28;20570;-81
2023/04/06 03:20:32;;;;;;;6.05;1.98;;;1.60;99.90;;;;;;5034830;28;20037;-81
2023/04/06 03:22:58;;;;;;;12.95;2.30;;;1.50;99.90;;;;;;5028393;28;20091;-81
2023/04/06 03:25:24;;;;;;;5.85;2.60;;;1.50;99.90;;;;;;5032208;28;20040;-81
2023/04/06 03:27:49;;;;;;;5.90;2.40;;;1.50;99.90;;;;;;5035341;28;20041;-81
2023/04/06 03:30:17;;;;;;;4.38;2.15;;;1.50;99.90;;;;;;5017596;28;20102;-81
2023/04/06 03:32:46;;;;;;;5.70;2.13;;;1.50;99.90;;;;;;5012676;28;20037;-81
2023/04/06 03:35:11;;;;;;;4.10;2.30;;;1.60;99.90;;;;;;5024230;28;20116;-81
2023/04/06 03:37:37;;;;;;;5.57;2.00;;;1.50;99.90;;;;;;5029859;28;20038;-81
2023/04/06 03:40:03;;;;;;;4.78;2.25;;;1.50;99.90;;;;;;5015604;28;20048;-81
2023/04/06 03:42:29;;;;;;;4.82;2.47;;;1.50;99.90;;;;;;5019630;28;20060;-81
2023/04/06 03:44:55;;;;;;;3.72;2.00;;;1.50;99.90;;;;;;5033796;28;20041;-81
2023/04/06 03:47:20;;;;;;;7.22;2.40;;;1.50;99.90;;;;;;5013185;28;20115;-81
2023/04/06 03:49:46;;;;;;;5.43;2.30;;;1.50;99.90;;;;;;5015490;28;20038;-81
2023/04/06 03:52:11;;;;;;;6.47;2.28;;;1.50;99.90;;;;;;5010993;28;20055;-81
2023/04/06 03:54:37;;;;;;;4.28;2.28;;;1.50;99.90;;;;;;5033517;28;20128;-81
2023/04/06 03:57:04;;;;;;;2.53;1.88;;;1.50;99.90;;;;;;5016696;28;20418;-81
2023/04/06 03:59:29;;;;;;;5.63;2.00;;;1.50;99.90;;;;;;5033412;28;20068;-80
2023/04/06 04:01:55;;;;;;;3.88;1.98;;;1.50;99.90;;;;;;5013043;28;20513;-80
2023/04/06 04:04:21;;;;;;;4.45;2.72;;;1.50;99.90;;;;;;5013335;28;20109;-81
2023/04/06 04:06:46;;;;;;;5.85;2.30;;;1.50;99.90;;;;;;5028363;28;20049;-80
2023/04/06 04:09:12;;;;;;;4.28;2.10;;;1.50;99.90;;;;;;5011328;28;20049;-81
2023/04/06 04:11:38;;;;;;;4.60;2.50;;;1.50;99.90;;;;;;5030423;28;20163;-81
2023/04/06 04:14:03;;;;;;;5.05;2.70;;;1.60;99.90;;;;;;5032889;28;20037;-81
2023/04/06 04:16:29;;;;;;;4.40;2.20;;;1.60;99.90;;;;;;5032951;28;20029;-80
2023/04/06 04:18:55;;;;;;;8.90;2.45;;;1.60;99.90;;;;;;5020909;28;20037;-80
2023/04/06 04:21:20;;;;;;;4.05;2.00;;;1.60;99.90;;;;;;5015063;28;20103;-80
2023/04/06 04:23:46;;;;;;;3.75;2.10;;;1.60;99.90;;;;;;5019316;28;20143;-81
2023/04/06 04:26:12;;;;;;;3.88;1.88;;;1.50;99.90;;;;;;5037602;28;20560;-81
2023/04/06 04:28:37;;;;;;;4.72;2.42;;;1.50;99.90;;;;;;5013526;28;20041;-81
2023/04/06 04:31:03;;;;;;;4.65;2.50;;;1.60;99.90;;;;;;5036200;28;20037;-80
2023/04/06 04:33:28;;;;;;;4.07;2.45;;;1.50;99.90;;;;;;5039775;28;20037;-80
2023/04/06 04:35:54;;;;;;;3.58;2.15;;;1.60;99.90;;;;;;5034541;28;20025;-80
2023/04/06 04:38:20;;;;;;;4.68;2.28;;;1.60;99.90;;;;;;5015943;28;20041;-80
2023/04/06 04:40:46;;;;;;;4.82;2.22;;;1.60;99.90;;;;;;5037710;28;20041;-80
2023/04/06 04:43:11;;;;;;;8.77;2.92;;;1.60;99.90;;;;;;5021296;28;20120;-80
2023/04/06 04:45:37;;;;;;;4.47;2.33;;;1.60;99.90;;;;;;5036058;28;20055;-80
2023/04/06 04:48:04;;;;;;;4.18;2.67;;;1.50;99.90;;;;;;5019075;28;20040;-80
2023/04/06 04:50:30;;;;;;;5.90;2.85;;;1.50;99.90;;;;;;5034777;28;20087;-80
2023/04/06 04:52:56;;;;;;;5.78;2.60;;;1.50;99.90;;;;;;5016125;28;20992;-80
2023/04/06 04:55:21;;;;;;;5.00;2.38;;;1.50;99.90;;;;;;5016939;28;20049;-80
2023/04/06 04:57:47;;;;;;;4.65;2.28;;;1.50;99.90;;;;;;5020302;28;20029;-80
2023/04/06 05:00:13;;;;;;;4.72;2.22;;;1.50;99.90;;;;;;5017498;28;20087;-80
2023/04/06 05:02:39;;;;;;;3.80;2.20;;;1.50;99.90;;;;;;5018917;28;20121;-80
2023/04/06 05:05:05;;;;;;;4.80;2.08;;;1.50;99.90;;;;;;5020415;28;20464;-80
2023/04/06 05:07:31;;;;;;;5.15;2.38;;;1.50;99.90;;;;;;5032616;28;20120;-81
2023/04/06 05:09:56;;;;;;;7.88;2.38;;;1.50;99.90;;;;;;5033893;28;20033;-81
2023/04/06 05:12:22;;;;;;;4.38;2.80;;;1.50;99.90;;;;;;5013053;28;20037;-81
2023/04/06 05:14:48;;;;;;;4.60;2.60;;;1.50;99.90;;;;;;5013651;28;20375;-80
2023/04/06 05:17:13;;;;;;;4.30;2.40;;;1.50;99.90;;;;;;5036884;28;20083;-81
2023/04/06 05:19:39;;;;;;;6.72;2.97;;;1.50;99.90;;;;;;5035145;28;20037;-81
2023/04/06 05:22:04;;;;;;;5.53;1.90;;;1.50;99.90;;;;;;5014362;28;20029;-81
2023/04/06 05:24:30;;;;;;;6.45;2.63;;;1.50;99.90;;;;;;5019921;28;20044;-81
2023/04/06 05:26:56;;;;;;;6.22;2.90;;;1.60;99.90;;;;;;5016302;28;20044;-81
2023/04/06 05:29:21;;;;;;;6.20;2.42;;;1.60;99.90;;;;;;5035544;28;20041;-81
2023/04/06 05:31:47;;;;;;;3.72;2.28;;;1.60;99.90;;;;;;5017531;28;20712;-81
2023/04/06 05:34:13;;;;;;;5.97;2.42;;;1.60;99.90;;;;;;5020547;28;20490;-81
2023/04/06 05:36:40;;;;;;;6.57;3.22;;;1.60;99.90;;;;;;5010753;28;20341;-81
2023/04/06 05:39:06;;;;;;;5.07;2.53;;;1.60;99.90;;;;;;5015950;28;20560;-81
2023/04/06 05:41:31;;;;;;;4.32;2.30;;;1.70;99.90;;;;;;5036307;28;20045;-81
2023/04/06 05:43:57;;;;;;;4.35;2.45;;;1.70;99.90;;;;;;5015823;28;20088;-81
2023/04/06 05:46:23;;;;;;;5.55;2.90;;;1.70;99.90;;;;;;5037552;28;20053;-81
2023/04/06 05:48:48;;;;;;;6.20;2.88;;;1.70;99.90;;;;;;5014646;28;20039;-81
2023/04/06 05:51:14;;;;;;;7.13;2.58;;;1.80;99.90;;;;;;5011409;28;20043;-81
2023/04/06 05:53:40;;;;;;;6.43;2.67;;;1.70;99.90;;;;;;5010506;28;20120;-81
2023/04/06 05:56:06;;;;;;;6.35;2.83;;;1.80;99.90;;;;;;5035435;28;20044;-81
2023/04/06 05:58:32;;;;;;;5.97;2.50;;;1.80;99.90;;;;;;5018201;28;20442;-82
2023/04/06 06:00:59;;;;;;;5.95;3.10;;;1.80;99.90;;;;;;5010889;28;20052;-81
2023/04/06 06:03:24;;;;;;;5.93;2.72;;;1.90;99.90;;;;;;5017020;28;20132;-81
2023/04/06 06:05:50;;;;;;;4.15;2.42;;;1.90;99.90;;;;;;5017249;28;20132;-81
2023/04/06 06:08:16;;;;;;;6.32;2.95;;;1.90;99.90;;;;;;5033963;28;20413;-81
2023/04/06 06:10:41;;;;;;;6.35;4.05;;;2.00;99.90;;;;;;5017543;28;20068;-81
2023/04/06 06:13:07;;;;;;;7.05;2.88;;;2.00;99.90;;;;;;5014348;28;20033;-82
2023/04/06 06:15:33;;;;;;;7.72;3.60;;;2.10;99.90;;;;;;5033037;28;20124;-79
2023/04/06 06:17:58;;;;;;;7.38;3.60;;;2.10;99.90;;;;;;5013188;28;20033;-81
2023/04/06 06:20:24;;;;;;;4.00;2.33;;;2.10;99.90;;;;;;5028632;28;20124;-81
2023/04/06 06:22:50;;;;;;;7.53;2.67;;;2.20;99.90;;;;;;5031087;28;20049;-81
2023/04/06 06:25:15;;;;;;;4.90;2.63;;;2.20;99.90;;;;;;5018395;28;20044;-82
2023/04/06 06:27:42;;;;;;;5.35;3.22;;;2.30;99.90;;;;;;5016163;28;20037;-82
2023/04/06 06:30:08;;;;;;;5.78;3.08;;;2.30;99.90;;;;;;5026028;28;20478;-82
2023/04/06 06:32:34;;;;;;;5.32;2.75;;;2.40;99.90;;;;;;5023621;28;20048;-82
2023/04/06 06:34:59;;;;;;;10.38;3.55;;;2.40;99.90;;;;;;5022861;28;20033;-81
2023/04/06 06:37:25;;;;;;;5.78;3.20;;;2.50;99.90;;;;;;5026390;28;20570;-81
2023/04/06 06:39:50;;;;;;;7.60;3.63;;;2.50;99.90;;;;;;5016762;28;20478;-82
2023/04/06 06:42:16;;;;;;;5.35;3.08;;;2.50;99.90;;;;;;5010535;28;20042;-82
2023/04/06 06:44:41;;;;;;;7.35;3.28;;;2.60;99.90;;;;;;5029052;28;20083;-82
2023/04/06 06:47:07;;;;;;;8.60;3.53;;;2.60;99.90;;;;;;5011459;28;20045;-82
2023/04/06 06:49:32;;;;;;;8.73;3.95;;;2.60;99.90;;;;;;5014930;28;21908;-83
2023/04/06 06:51:58;;;;;;;9.10;3.90;;;2.70;99.90;;;;;;5019448;28;20033;-82
2023/04/06 06:54:24;;;;;;;12.63;3.70;;;2.70;99.90;;;;;;5034500;28;20391;-82
2023/04/06 06:56:49;;;;;;;8.48;3.30;;;2.80;99.90;;;;;;5029621;28;20076;-83
2023/04/06 06:59:16;;;;;;;7.32;3.20;;;2.80;99.90;;;;;;5013656;28;20482;-83
2023/04/06 07:01:41;;;;;;;8.00;3.75;;;2.90;99.90;;;;;;5030648;28;20657;-82
2023/04/06 07:04:08;;;;;;;12.23;3.60;;;2.90;99.90;;;;;;5022939;28;20236;-82
2023/04/06 07:06:35;;;;;;;9.18;3.58;;;3.00;99.90;;;;;;5017692;28;20449;-82
2023/04/06 07:09:03;;;;;;;9.20;3.42;;;3.00;99.90;;;;;;5031386;28;20041;-82
2023/04/06 07:11:29;;;;;;;7.78;3.40;;;3.10;99.90;;;;;;5005371;28;20218;-83
2023/04/06 07:13:55;;;;;;;5.15;3.40;;;3.10;99.90;;;;;;5028918;28;20041;-81
2023/04/06 07:16:20;;;;;;;8.52;4.00;;;3.20;99.90;;;;;;5019798;28;20163;-82
2023/04/06 07:18:46;;;;;;;6.50;3.35;;;3.20;99.90;;;;;;5028967;28;20418;-82
2023/04/06 07:21:11;;;;;;;6.65;3.45;;;3.30;99.90;;;;;;5027222;28;20454;-82
2023/04/06 07:23:37;;;;;;;6.90;3.75;;;3.40;99.90;;;;;;5028276;28;20041;-82
2023/04/06 07:26:03;;;;;;;6.65;3.33;;;3.40;99.90;;;;;;5028242;28;20037;-82
2023/04/06 07:28:28;;;;;;;8.25;3.67;;;3.50;99.90;;;;;;5012151;28;20038;-82
2023/04/06 07:30:54;;;;;;;8.20;3.50;;;3.50;99.90;;;;;;5010714;28;20045;-82
2023/04/06 07:33:20;;;;;;;10.13;3.95;;;3.60;99.90;;;;;;5028684;28;20124;-82
2023/04/06 07:35:46;;;;;;;9.38;3.22;;;3.70;99.90;;;;;;5011533;28;20049;-82
2023/04/06 07:38:12;;;;;;;9.30;3.53;;;3.80;99.90;;;;;;5011617;28;20089;-83
2023/04/06 07:40:37;;;;;;;7.13;3.40;;;3.80;99.90;;;;;;5028076;28;20471;-82
2023/04/06 07:43:03;;;;;;;8.73;3.30;;;3.90;99.90;;;;;;5011911;28;20038;-82
2023/04/06 07:45:29;;;;;;;6.95;3.88;;;4.00;99.90;;;;;;5011746;28;20048;-82
2023/04/06 07:47:55;;;;;;;6.68;3.38;;;4.10;99.90;;;;;;5019027;28;20045;-82
2023/04/06 07:50:21;;;;;;;7.68;3.78;;;4.10;99.90;;;;;;5018014;28;20034;-82
2023/04/06 07:52:46;;;;;;;9.40;4.35;;;4.20;99.90;;;;;;5026788;28;20064;-82
2023/04/06 07:55:12;;;;;;;7.82;3.60;;;4.20;99.90;;;;;;5035203;28;20498;-82
2023/04/06 07:57:38;;;;;;;9.77;3.67;;;4.30;99.90;;;;;;5047638;28;20245;-82
2023/04/06 08:00:04;;;;;;;6.55;3.05;;;4.40;99.90;;;;;;5047647;28;20445;-82
2023/04/06 08:02:33;;;;;;;5.70;3.38;;;4.50;99.90;;;;;;5016457;28;20064;-82
2023/04/06 08:04:58;;;;;;;7.53;3.72;;;4.50;99.90;;;;;;5029778;28;20476;-83
2023/04/06 08:07:24;;;;;;;8.02;3.65;;;4.60;99.90;;;;;;5043774;28;20113;-82
2023/04/06 08:09:50;;;;;;;6.60;3.75;;;4.70;99.90;;;;;;5029908;28;20493;-82
2023/04/06 08:12:15;;;;;;;7.25;3.67;;;4.80;99.90;;;;;;5038014;28;20422;-82
2023/04/06 08:14:41;;;;;;;5.45;2.92;;;4.90;99.90;;;;;;5044403;28;20037;-82
2023/04/06 08:17:07;;;;;;;9.15;3.90;;;4.90;99.90;;;;;;5030197;28;20452;-82
2023/04/06 08:19:32;;;;;;;5.97;3.17;;;5.00;99.90;;;;;;5031026;28;20040;-83
2023/04/06 08:21:58;;;;;;;7.97;4.10;;;5.10;99.90;;;;;;5029879;28;20074;-82
2023/04/06 08:24:23;;;;;;;8.20;3.53;;;5.10;99.90;;;;;;5047521;28;20043;-82
2023/04/06 08:26:51;;;;;;;8.93;4.13;;;5.20;99.90;;;;;;5039193;28;20116;-82
2023/04/06 08:29:16;;;;;;;8.00;3.65;;;5.30;99.90;;;;;;5024053;28;20049;-82
2023/04/06 08:31:42;;;;;;;8.63;4.10;;;5.30;99.90;;;;;;5027396;28;20068;-82
2023/04/06 08:34:08;;;;;;;6.18;3.47;;;5.40;99.90;;;;;;5047615;28;20040;-82
2023/04/06 08:36:33;;;;;;;7.95;3.60;;;5.50;99.90;;;;;;5046288;28;20104;-83
2023/04/06 08:39:00;;;;;;;8.07;3.58;;;5.50;99.90;;;;;;5047581;28;20263;-82
2023/04/06 08:41:26;;;;;;;6.18;3.42;;;5.60;99.80;;;;;;5008563;28;20049;-83
2023/04/06 08:43:59;;;;;;;9.32;3.85;;;5.70;99.70;;;;;;5008633;28;20075;-83
2023/04/06 08:46:29;;;;;;;6.63;3.40;;;5.80;99.20;;;;;;5017551;28;20075;-84
2023/04/06 08:48:59;;;;;;;7.00;3.25;;;5.80;99.30;;;;;;5030892;28;20045;-83
2023/04/06 08:51:26;;;;;;;6.78;3.42;;;5.90;99.30;;;;;;5015910;28;20617;-82
2023/04/06 08:53:58;;;;;;;6.10;3.33;;;6.00;99.20;;;;;;5027780;28;20044;-80
2023/04/06 08:56:25;;;;;;;9.02;3.95;;;6.10;99.00;;;;;;5034963;28;20041;-82
2023/04/06 08:58:52;;;;;;;6.20;3.33;;;6.10;98.90;;;;;;5012576;28;20497;-81
2023/04/06 09:01:26;;;;;;;7.05;3.03;;;6.30;98.90;;;;;;5005470;28;20041;-81
2023/04/06 09:03:56;;;;;;;5.85;2.83;;;6.30;98.60;;;;;;5010320;28;20042;-81
2023/04/06 09:06:22;;;;;;;8.55;2.92;;;6.40;98.50;;;;;;5019865;28;20079;-81
2023/04/06 09:08:48;;;;;;;8.60;3.97;;;6.50;98.70;;;;;;5016265;28;20060;-81
2023/04/06 09:11:14;;;;;;;6.32;3.40;;;6.60;98.80;;;;;;5035913;28;20120;-81
2023/04/06 09:13:51;;;;;;;9.48;3.28;;;6.70;98.90;;;;;;5028547;28;20126;-82
2023/04/06 09:16:18;;;;;;;7.32;3.78;;;6.80;98.40;;;;;;5023029;28;20037;-81
2023/04/06 09:18:44;;;;;;;9.50;3.97;;;6.90;98.00;;;;;;5036549;28;20045;-81
2023/04/06 09:21:10;;;;;;;6.18;3.63;;;7.00;98.10;;;;;;5016981;28;20098;-83
2023/04/06 09:23:36;;;;;;;7.93;3.75;;;7.20;97.50;;;;;;5017075;28;20043;-80
2023/04/06 09:26:06;;;;;;;8.52;4.18;;;7.20;97.10;;;;;;5031251;28;20037;-80
2023/04/06 09:28:51;;;;;;;7.22;3.67;;;7.30;96.60;;;;;;5030136;28;20397;-81
2023/04/06 09:31:23;;;;;;;7.95;3.72;;;7.40;96.00;;;;;;5034019;28;20037;-80
2023/04/06 09:33:48;;;;;;;7.30;4.07;;;7.50;96.40;;;;;;5008383;28;20120;-81
2023/04/06 09:36:15;;;;;;;9.43;3.72;;;7.60;96.50;;;;;;5012292;28;20112;-80
2023/04/06 09:39:01;;;;;;;11.32;4.63;;;7.70;95.80;;;;;;5017694;28;20633;-80
2023/04/06 09:41:31;;;;;;;10.27;4.38;;;7.80;94.00;;;;;;5036746;28;20387;-80
2023/04/06 09:44:04;;;;;;;10.35;4.10;;;7.90;94.50;;;;;;5016562;28;20041;-80
2023/04/06 09:46:36;;;;;;;8.18;4.38;;;7.90;94.30;;;;;;5035006;28;20120;-80
2023/04/06 09:49:03;;;;;;;11.05;4.53;;;8.00;94.60;;;;;;5029736;28;20049;-81
2023/04/06 09:51:40;;;;;;;10.80;4.90;;;8.10;94.10;;;;;;5031409;28;20076;-80
2023/04/06 09:54:07;;;;;;;11.48;4.82;;;8.20;94.00;;;;;;5029969;28;20083;-80
2023/04/06 09:56:58;;;;;;;10.10;4.38;;;8.20;93.80;;;;;;5035596;28;20041;-81
2023/04/06 09:59:42;;;;;;;13.63;5.32;;;8.20;92.70;;;;;;5017412;28;20048;-81
2023/04/06 10:02:18;;;;;;;14.07;5.13;;;8.30;92.70;;;;;;5016265;28;20098;-81
2023/04/06 10:04:53;;;;;;;11.75;4.65;;;8.40;93.20;;;;;;5014518;28;20053;-81
2023/04/06 10:07:18;;;;;;;11.32;5.13;;;8.40;93.50;;;;;;5020602;28;20468;-80
2023/04/06 10:09:46;;;;;;;12.23;5.63;;;8.50;93.80;;;;;;5010753;28;20067;-81
2023/04/06 10:12:12;;;;;;;15.57;5.93;;;8.60;93.70;;;;;;5035367;28;20128;-81
2023/04/06 10:14:40;;;;;;;14.98;5.45;;;8.60;93.60;;;;;;5015954;28;20690;-80
2023/04/06 10:17:06;;;;;;;12.35;5.00;;;8.70;94.20;;;;;;5015263;28;20033;-80
2023/04/06 10:19:55;;;;;;;12.65;5.90;;;8.70;93.40;;;;;;5020714;28;20041;-81
2023/04/06 10:22:34;;;;;;;12.27;5.55;;;8.80;92.90;;;;;;5014934;28;20041;-81
2023/04/06 10:25:00;;;;;;;14.20;6.35;;;8.80;92.60;;;;;;5022704;28;20422;-81
2023/04/06 10:27:30;;;;;;;12.65;4.93;;;8.90;93.10;;;;;;5013400;28;20052;-81
2023/04/06 10:30:02;;;;;;;15.23;5.78;;;8.90;93.60;;;;;;5013126;28;20053;-81
2023/04/06 10:32:36;;;;;;;13.70;6.00;;;9.00;93.50;;;;;;5010545;28;20402;-81
2023/04/06 10:35:09;;;;;;;11.88;5.07;;;9.00;92.90;;;;;;5028717;28;20072;-81
2023/04/06 10:37:51;;;;;;;11.18;5.47;;;9.00;92.90;;;;;;5029232;28;20084;-81
2023/04/06 10:40:25;;;;;;;12.95;5.45;;;9.10;91.40;;;;;;5019720;28;20553;-81
2023/04/06 10:42:52;;;;;;;12.98;5.05;;;9.20;92.20;;;;;;5029549;28;20064;-81
2023/04/06 10:45:31;;;;;;;12.35;5.82;;;9.20;92.30;;;;;;5015560;28;20040;-81
2023/04/06 10:47:56;;;;;;;13.70;5.80;;;9.30;91.40;;;;;;5017036;28;20052;-81
2023/04/06 10:50:22;;;;;;;11.50;5.47;;;9.30;92.00;;;;;;5017259;28;20041;-81
2023/04/06 10:53:02;;;;;;;15.05;5.72;;;9.30;91.30;;;;;;5027725;28;20042;-80
2023/04/06 10:55:29;;;;;;;11.85;5.38;;;9.30;89.60;;;;;;5010629;28;20056;-80
2023/04/06 10:57:54;;;;;;;13.95;6.10;;;9.30;91.40;;;;;;5019066;28;20229;-81
2023/04/06 11:00:20;;;;;;;13.30;5.80;;;9.40;92.50;;;;;;5020909;28;20068;-81
2023/04/06 11:02:46;;;;;;;16.00;5.63;;;9.40;92.10;;;;;;5015774;28;20092;-81
2023/04/06 11:05:15;;;;;;;13.30;5.85;;;9.40;91.50;;;;;;5035201;28;20044;-81
2023/04/06 11:07:41;;;;;;;17.67;6.43;;;9.40;92.10;;;;;;5031832;28;20125;-81
2023/04/06 11:10:08;;;;;;;16.08;6.68;;;9.50;92.00;;;;;;5030735;28;20090;-81
2023/04/06 11:12:34;;;;;;;14.52;6.85;;;9.60;91.80;;;;;;5037043;28;20163;-80
2023/04/06 11:15:05;;;;;;;15.00;6.07;;;9.60;91.00;;;;;;5014474;28;20028;-80
2023/04/06 11:17:35;;;;;;;14.63;6.88;;;9.70;91.30;;;;;;5024188;28;20509;-81
2023/04/06 11:20:02;;;;;;;17.60;6.85;;;9.80;91.10;;;;;;5029912;28;20051;-81
2023/04/06 11:22:28;;;;;;;15.15;6.80;;;9.80;91.30;;;;;;5028648;28;20048;-81
2023/04/06 11:25:05;;;;;;;12.30;5.97;;;9.90;90.60;;;;;;5017415;28;20037;-81
2023/04/06 11:27:31;;;;;;;13.80;6.30;;;9.90;87.60;;;;;;5030697;28;20049;-81
2023/04/06 11:29:59;;;;;;;17.33;6.60;;;10.00;90.10;;;;;;5016562;28;20155;-81
2023/04/06 11:32:24;;;;;;;16.27;6.30;;;10.10;90.10;;;;;;5029008;28;20690;-81
2023/04/06 11:34:50;;;;;;;15.68;6.75;;;10.10;89.60;;;;;;5033457;28;20071;-81
2023/04/06 11:37:16;;;;;;;13.10;6.50;;;10.10;88.70;;;;;;5025298;28;20093;-81
2023/04/06 11:39:50;;;;;;;12.52;6.15;;;10.10;90.00;;;;;;5029065;28;20072;-81
2023/04/06 11:42:24;;;;;;;15.35;6.35;;;10.10;86.00;;;;;;5032118;28;20052;-81
2023/04/06 11:44:53;;;;;;;13.77;5.72;;;10.10;85.40;;;;;;5027478;28;20131;-80
2023/04/06 11:47:20;;;;;;;19.20;6.60;;;10.10;88.40;;;;;;5006547;28;20181;-80
2023/04/06 11:49:45;;;;;;;14.38;6.78;;;10.10;88.70;;;;;;5008392;28;20045;-80
2023/04/06 11:52:18;;;;;;;13.48;6.28;;;10.10;88.60;;;;;;5005394;28;20037;-80
2023/04/06 11:54:44;;;;;;;16.42;6.70;;;10.10;87.10;;;;;;5029209;28;20414;-80
2023/04/06 11:57:10;;;;;;;16.70;6.45;;;10.10;86.80;;;;;;5013556;28;20045;-81
2023/04/06 11:59:36;;;;;;;15.68;7.32;;;10.20;88.20;;;;;;5012293;28;20044;-81
2023/04/06 12:02:02;;;;;;;14.25;5.88;;;10.20;87.80;;;;;;5007943;28;20139;-80
2023/04/06 12:04:29;;;;;;;16.17;6.88;;;10.20;88.90;;;;;;5023567;28;20115;-80
2023/04/06 12:06:55;;;;;;;17.13;6.80;;;10.20;86.00;;;;;;5013263;28;20394;-81
2023/04/06 12:09:21;;;;;;;19.92;8.00;;;10.20;87.10;;;;;;5031199;28;20050;-81
2023/04/06 12:11:46;;;;;;;14.73;7.30;;;10.30;85.60;;;;;;5034046;28;20070;-81
2023/04/06 12:14:13;;;;;;;16.52;6.47;;;10.30;85.50;;;;;;5035409;28;20062;-81
2023/04/06 12:16:38;;;;;;;16.73;6.13;;;10.40;84.70;;;;;;5010974;28;20029;-80
2023/04/06 12:19:05;;;;;;;15.77;6.65;;;10.40;84.40;;;;;;5011334;28;20072;-81
2023/04/06 12:21:32;;;;;;;16.13;6.85;;;10.40;84.50;;;;;;5030204;28;20059;-80
2023/04/06 12:23:58;;;;;;;15.82;6.90;;;10.50;82.80;;;;;;5022376;28;20644;-81
2023/04/06 12:26:24;;;;;;;15.48;7.50;;;10.60;83.70;;;;;;5009053;28;20402;-80
2023/04/06 12:28:50;;;;;;;19.20;7.00;;;10.60;84.00;;;;;;5030237;28;20491;-81
2023/04/06 12:31:17;;;;;;;19.75;7.55;;;10.70;82.30;;;;;;5015391;28;20045;-81
2023/04/06 12:33:46;;;;;;;20.25;6.68;;;10.70;83.90;;;;;;5008607;28;20067;-81
2023/04/06 12:36:13;;;;;;;15.80;6.15;;;10.70;83.40;;;;;;5030139;28;20683;-81
2023/04/06 12:38:40;;;;;;;14.77;7.55;;;10.80;83.20;;;;;;5035964;28;20037;-81
2023/04/06 12:41:06;;;;;;;16.73;7.28;;;10.80;80.70;;;;;;5039058;28;20521;-81
2023/04/06 12:43:32;;;;;;;18.38;6.85;;;10.80;80.40;;;;;;5016538;28;20079;-81
2023/04/06 12:45:58;;;;;;;13.98;6.43;;;10.80;78.80;;;;;;5010333;28;20072;-81
2023/04/06 12:48:24;;;;;;;16.80;6.30;;;10.80;77.50;;;;;;5033871;28;20105;-81
2023/04/06 12:51:01;;;;;;;14.65;6.10;;;10.90;78.20;;;;;;5021323;28;20045;-81